Decoded Metar for SADF (SAN FERNANDO in ARGENTINA) (IATA:N/A) | Meteo·Mobile Aviation Weather
aviador You're here:

SADF Decoded Metar

SAN FERNANDO in ARGENTINA
Report Time2019-06-26 21:00:00
UTC Time2019-06-26 21:54:20
Flight Rules vfr VFR
Wind320° at 07 kt
W.Decomp.*RWY 05: 1.0 kt HW 6.9 kt LCW
Visibility9999 m
Phenomena:N/A
Clouds:N/A
Expected CloudBase > 4,400 ft AGL from Temp-Dew spread
CeilingNone
Temp11°C (ISA -4)
Dew Point00°C (47% RH)
AAT6.5°C
QNH1014 hPa
Density Alt-410 ft
Elevation13 ft
Report Wrong Elevation
Raw Report
METAR SADF 262100Z 32007KT CAVOK 11/M00 Q1014=

Extra information for SADF:More info

Metar Taf Metar & Taf Last 4 Metars F.Rules Stats Wind Profile Meteogram Temp Stats Airport Information Weather charts Add Link Nearby VenuesMetar ALERT Operation Metar Decoded Social comments